Time;durP1;ratioP1;P1;durP2;ratioP2;P2;SDS_P1;SDS_P2;PMS_P1;PMS_P2;Temp;Humidity;BMP_temperature;BMP_pressure;BME280_temperature;BME280_humidity;BME280_pressure;Samples;Min_cycle;Max_cycle;Signal;HPM_P1;HPM_P2
2024/01/20 00:01:46;;;;;;;1999.90;999.90;;;0.50;99.90;;;;;;5022820;28;20029;-80
2024/01/20 00:04:12;;;;;;;1999.90;999.90;;;0.70;99.90;;;;;;5023843;28;20237;-81
2024/01/20 00:06:38;;;;;;;1999.90;999.90;;;0.40;99.90;;;;;;5036913;28;20041;-81
2024/01/20 00:09:03;;;;;;;1999.90;999.90;;;0.50;99.90;;;;;;5020360;28;20029;-81
2024/01/20 00:11:29;;;;;;;1999.90;999.90;;;0.60;99.90;;;;;;5021370;28;20045;-81
2024/01/20 00:13:55;;;;;;;1999.90;999.90;;;0.80;99.90;;;;;;5020849;28;20441;-81
2024/01/20 00:16:20;;;;;;;1999.90;999.90;;;0.60;99.90;;;;;;5019822;28;20060;-80
2024/01/20 00:18:46;;;;;;;1999.90;999.90;;;0.60;99.90;;;;;;5036161;28;20116;-80
2024/01/20 00:21:11;;;;;;;1999.90;999.90;;;0.60;99.90;;;;;;5036855;28;20413;-80
2024/01/20 00:23:37;;;;;;;1999.90;999.90;;;0.40;99.90;;;;;;5020586;28;20105;-80
2024/01/20 00:26:03;;;;;;;1999.90;999.90;;;0.60;99.90;;;;;;5020103;28;20091;-81
2024/01/20 00:28:29;;;;;;;1999.90;999.90;;;0.50;99.90;;;;;;5036597;28;20421;-81
2024/01/20 00:30:55;;;;;;;1999.90;999.90;;;0.60;99.90;;;;;;5036390;28;20113;-81
2024/01/20 00:33:21;;;;;;;1999.90;999.90;;;0.60;99.90;;;;;;5024109;28;20209;-80
2024/01/20 00:35:47;;;;;;;1999.90;999.90;;;0.60;99.90;;;;;;5041989;28;20040;-80
2024/01/20 00:38:14;;;;;;;1999.90;999.90;;;0.60;99.90;;;;;;5025423;28;20536;-81
2024/01/20 00:40:40;;;;;;;1999.90;999.90;;;0.50;99.90;;;;;;5040702;28;20033;-81
2024/01/20 00:43:06;;;;;;;1999.90;999.90;;;2.10;99.90;;;;;;5025356;28;20056;-80
2024/01/20 00:45:32;;;;;;;1999.90;999.90;;;0.50;99.90;;;;;;5027140;28;20034;-81
2024/01/20 00:47:57;;;;;;;1999.90;999.90;;;0.50;99.90;;;;;;5024759;28;20524;-80
2024/01/20 00:50:23;;;;;;;1999.90;999.90;;;0.50;99.90;;;;;;5041635;28;20052;-80
2024/01/20 00:52:49;;;;;;;1999.90;999.90;;;0.50;99.90;;;;;;5040645;28;20037;-81
2024/01/20 00:55:15;;;;;;;1999.90;999.90;;;0.50;99.90;;;;;;5025381;28;20049;-82
2024/01/20 00:57:40;;;;;;;1999.90;999.90;;;1.00;99.90;;;;;;5024384;28;20413;-81
2024/01/20 01:00:09;;;;;;;1999.90;999.90;;;0.50;99.90;;;;;;5024840;28;20084;-81
2024/01/20 01:02:35;;;;;;;1999.90;999.90;;;0.40;99.90;;;;;;5024188;28;20034;-80
2024/01/20 01:05:01;;;;;;;1999.90;999.90;;;1.60;99.90;;;;;;5024304;28;20065;-81
2024/01/20 01:07:27;;;;;;;1999.90;999.90;;;0.30;99.90;;;;;;5039867;28;20032;-81
2024/01/20 01:09:53;;;;;;;1999.90;999.90;;;1.40;99.90;;;;;;5040779;28;20501;-80
2024/01/20 01:12:18;;;;;;;1999.90;999.90;;;0.40;99.90;;;;;;5024224;28;20145;-80
2024/01/20 01:14:44;;;;;;;1999.90;999.90;;;0.40;99.90;;;;;;5024258;28;20037;-81
2024/01/20 01:17:10;;;;;;;1999.90;999.90;;;0.40;99.90;;;;;;5041266;28;20037;-81
2024/01/20 01:19:36;;;;;;;1999.90;999.90;;;0.40;99.90;;;;;;5024650;28;20045;-80
2024/01/20 01:22:02;;;;;;;1999.90;999.90;;;0.40;99.90;;;;;;5022052;28;20041;-81
2024/01/20 01:24:28;;;;;;;1999.90;999.90;;;0.40;99.90;;;;;;5021649;28;20068;-81
2024/01/20 01:26:53;;;;;;;1999.90;999.90;;;0.30;99.90;;;;;;5013315;28;20034;-80
2024/01/20 01:29:19;;;;;;;1999.90;999.90;;;1.40;99.90;;;;;;5025094;28;20105;-81
2024/01/20 01:31:45;;;;;;;1999.90;999.90;;;0.30;99.90;;;;;;5024477;28;20041;-80
2024/01/20 01:34:10;;;;;;;1999.90;999.90;;;1.20;99.90;;;;;;5024167;28;20034;-81
2024/01/20 01:36:36;;;;;;;1999.90;999.90;;;0.30;99.90;;;;;;5025180;28;20048;-80
2024/01/20 01:39:02;;;;;;;1999.90;999.90;;;0.30;99.90;;;;;;5041453;28;20033;-81
2024/01/20 01:41:28;;;;;;;1999.90;999.90;;;0.20;99.90;;;;;;5024804;28;20057;-81
2024/01/20 01:43:55;;;;;;;1999.90;999.90;;;0.20;99.90;;;;;;5025096;28;20045;-81
2024/01/20 01:46:20;;;;;;;1999.90;999.90;;;1.70;99.90;;;;;;5025184;28;20048;-81
2024/01/20 01:48:46;;;;;;;1999.90;999.90;;;0.20;99.90;;;;;;5022323;28;20030;-80
2024/01/20 01:51:12;;;;;;;1999.90;999.90;;;0.20;99.90;;;;;;5021058;28;20117;-80
2024/01/20 01:53:39;;;;;;;1999.90;999.90;;;0.20;99.90;;;;;;5024894;28;20064;-80
2024/01/20 01:56:06;;;;;;;1999.90;999.90;;;0.30;99.90;;;;;;5028937;28;20448;-81
2024/01/20 01:58:33;;;;;;;1999.90;999.90;;;0.30;99.90;;;;;;5028700;28;20045;-82
2024/01/20 02:01:00;;;;;;;1999.90;999.90;;;0.40;99.90;;;;;;5029233;28;20056;-80
2024/01/20 02:03:26;;;;;;;1999.90;999.90;;;0.40;99.90;;;;;;5028115;28;20041;-80
2024/01/20 02:05:52;;;;;;;1999.90;999.90;;;0.30;99.90;;;;;;5035632;28;20042;-80
2024/01/20 02:08:19;;;;;;;1999.90;999.90;;;0.30;99.90;;;;;;5023531;28;20041;-80
2024/01/20 02:10:46;;;;;;;1999.90;999.90;;;0.30;99.90;;;;;;5029581;28;20117;-80
2024/01/20 02:13:13;;;;;;;1999.90;999.90;;;0.30;99.90;;;;;;5024214;28;20052;-81
2024/01/20 02:15:39;;;;;;;1999.90;999.90;;;0.20;99.90;;;;;;5024638;28;20045;-81
2024/01/20 02:18:05;;;;;;;1999.90;999.90;;;0.20;99.90;;;;;;5024234;28;20048;-81
2024/01/20 02:20:34;;;;;;;1999.90;999.90;;;0.20;99.90;;;;;;5040120;28;20037;-80
2024/01/20 02:22:59;;;;;;;1999.90;999.90;;;0.30;99.90;;;;;;5024103;28;20097;-80
2024/01/20 02:25:25;;;;;;;1999.90;999.90;;;0.20;99.90;;;;;;5040267;28;20072;-81
2024/01/20 02:27:51;;;;;;;1999.90;999.90;;;0.20;99.90;;;;;;5023788;28;20422;-81
2024/01/20 02:30:16;;;;;;;1999.90;999.90;;;0.90;99.90;;;;;;5023857;28;20033;-81
2024/01/20 02:32:42;;;;;;;1999.90;999.90;;;0.10;99.90;;;;;;5039835;28;20040;-80
2024/01/20 02:35:09;;;;;;;1999.90;999.90;;;0.10;99.90;;;;;;5039811;28;20041;-81
2024/01/20 02:37:34;;;;;;;1999.90;999.90;;;0.10;99.90;;;;;;5042074;28;20037;-81
2024/01/20 02:40:00;;;;;;;1999.90;999.90;;;0.10;99.90;;;;;;5044806;28;20140;-81
2024/01/20 02:42:26;;;;;;;1999.90;999.90;;;0.10;99.90;;;;;;5028152;28;20114;-81
2024/01/20 02:44:51;;;;;;;1999.90;999.90;;;0.10;99.90;;;;;;5044692;28;20033;-80
2024/01/20 02:47:18;;;;;;;1999.90;999.90;;;0.10;99.90;;;;;;5028469;28;20065;-80
2024/01/20 02:49:44;;;;;;;1999.90;999.90;;;0.10;99.90;;;;;;5028581;28;20034;-81
2024/01/20 02:52:09;;;;;;;1999.90;999.90;;;0.10;99.90;;;;;;5028195;28;20068;-81
2024/01/20 02:54:35;;;;;;;1999.90;999.90;;;0.10;99.90;;;;;;5027755;28;20513;-81
2024/01/20 02:57:01;;;;;;;1999.90;999.90;;;0.00;99.90;;;;;;5044489;28;20033;-81
2024/01/20 02:59:26;;;;;;;1999.90;999.90;;;0.00;99.90;;;;;;5044217;28;20037;-81
2024/01/20 03:01:52;;;;;;;1999.90;999.90;;;0.00;99.90;;;;;;5027147;28;20156;-80
2024/01/20 03:04:17;;;;;;;1999.90;999.90;;;0.00;99.90;;;;;;5026267;28;20064;-81
2024/01/20 03:06:43;;;;;;;1999.90;999.90;;;0.00;99.90;;;;;;5022923;28;20409;-80
2024/01/20 03:09:14;;;;;;;1999.90;999.90;;;0.00;99.90;;;;;;5039287;28;20037;-80
2024/01/20 03:11:43;;;;;;;1999.90;999.90;;;-0.10;99.90;;;;;;5022598;28;20061;-81
2024/01/20 03:14:11;;;;;;;1999.90;999.90;;;-0.10;99.90;;;;;;5022547;28;20040;-80
2024/01/20 03:16:38;;;;;;;1999.90;999.90;;;-0.10;99.90;;;;;;5018274;28;20043;-80
2024/01/20 03:19:04;;;;;;;1999.90;999.90;;;1.00;99.90;;;;;;5022586;28;20037;-82
2024/01/20 03:21:30;;;;;;;1999.90;999.90;;;-0.10;99.90;;;;;;5022741;28;20038;-80
2024/01/20 03:23:55;;;;;;;1999.90;999.90;;;-0.10;99.90;;;;;;5025093;28;20060;-80
2024/01/20 03:26:21;;;;;;;1999.90;999.90;;;0.50;99.90;;;;;;5022106;28;20486;-81
2024/01/20 03:28:48;;;;;;;1999.90;999.90;;;-0.20;99.90;;;;;;5039061;28;20153;-81
2024/01/20 03:31:14;;;;;;;1999.90;999.90;;;0.90;99.90;;;;;;5022011;28;20052;-81
2024/01/20 03:33:39;;;;;;;1999.90;999.90;;;-0.20;99.90;;;;;;5038287;28;20033;-80
2024/01/20 03:36:05;;;;;;;1999.90;999.90;;;1.20;99.90;;;;;;5038846;28;20026;-81
2024/01/20 03:38:31;;;;;;;1999.90;999.90;;;-0.20;99.90;;;;;;5024493;28;20069;-81
2024/01/20 03:40:57;;;;;;;1999.90;999.90;;;-0.20;99.90;;;;;;5038597;28;20221;-81
2024/01/20 03:43:23;;;;;;;1999.90;999.90;;;-0.20;99.90;;;;;;5022322;28;20168;-81
2024/01/20 03:45:48;;;;;;;1999.90;999.90;;;-0.20;99.90;;;;;;5038164;28;20033;-81
2024/01/20 03:48:14;;;;;;;1999.90;999.90;;;-0.20;99.90;;;;;;5021860;28;20037;-80
2024/01/20 03:50:40;;;;;;;1999.90;999.90;;;-0.30;99.90;;;;;;5038077;28;20038;-81
2024/01/20 03:53:08;;;;;;;1999.90;999.90;;;-0.30;99.90;;;;;;5022661;28;20029;-80
2024/01/20 03:55:34;;;;;;;1999.90;999.90;;;0.00;99.90;;;;;;5021948;28;20044;-81
2024/01/20 03:58:00;;;;;;;1999.90;999.90;;;-0.30;99.90;;;;;;5021352;28;20065;-80
2024/01/20 04:00:25;;;;;;;1999.90;999.90;;;-0.40;99.90;;;;;;5037813;28;20413;-81
2024/01/20 04:02:51;;;;;;;1999.90;999.90;;;-0.40;99.90;;;;;;5021704;28;20048;-81
2024/01/20 04:05:17;;;;;;;1999.90;999.90;;;-0.40;99.90;;;;;;5020806;28;20422;-80
2024/01/20 04:07:43;;;;;;;1999.90;999.90;;;0.30;99.90;;;;;;5020824;28;20033;-81
2024/01/20 04:10:09;;;;;;;1999.90;999.90;;;0.30;99.90;;;;;;5020752;28;20067;-80
2024/01/20 04:12:36;;;;;;;1999.90;999.90;;;-0.40;99.90;;;;;;5021021;28;20056;-81
2024/01/20 04:15:01;;;;;;;1999.90;999.90;;;-0.40;99.90;;;;;;5035787;28;20693;-80
2024/01/20 04:17:27;;;;;;;1999.90;999.90;;;-0.40;99.90;;;;;;5037841;28;20068;-81
2024/01/20 04:19:55;;;;;;;1999.90;999.90;;;-0.50;99.90;;;;;;5021472;28;20045;-80
2024/01/20 04:22:21;;;;;;;1999.90;999.90;;;-0.50;99.90;;;;;;5037615;28;20120;-80
2024/01/20 04:24:47;;;;;;;1999.90;999.90;;;-0.50;99.90;;;;;;5022395;28;20095;-81
2024/01/20 04:27:12;;;;;;;1999.90;999.90;;;-0.50;99.90;;;;;;5023319;28;20526;-80
2024/01/20 04:29:38;;;;;;;1999.90;999.90;;;-0.40;99.90;;;;;;5019805;28;20041;-80
2024/01/20 04:32:04;;;;;;;1999.90;999.90;;;-0.50;99.90;;;;;;5020940;28;20033;-80
2024/01/20 04:34:29;;;;;;;1999.90;999.90;;;-0.50;99.90;;;;;;5020491;28;20504;-80
2024/01/20 04:36:55;;;;;;;1999.90;999.90;;;-0.50;99.90;;;;;;5037438;28;20037;-80
2024/01/20 04:39:22;;;;;;;1999.90;999.90;;;1.10;99.90;;;;;;5020140;28;20041;-80
2024/01/20 04:41:47;;;;;;;1999.90;999.90;;;-0.50;99.90;;;;;;5036632;28;20120;-80
2024/01/20 04:44:13;;;;;;;1999.90;999.90;;;-0.50;99.90;;;;;;5024097;28;20076;-80
2024/01/20 04:46:39;;;;;;;1999.90;999.90;;;-0.50;99.90;;;;;;5024295;28;20091;-81
2024/01/20 04:49:04;;;;;;;1999.90;999.90;;;0.10;99.90;;;;;;5040499;28;20068;-81
2024/01/20 04:51:30;;;;;;;1999.90;999.90;;;-0.50;99.90;;;;;;5040457;28;20041;-80
2024/01/20 04:53:55;;;;;;;1999.90;999.90;;;-0.50;99.90;;;;;;5040285;28;20041;-80
2024/01/20 04:56:22;;;;;;;1999.90;999.90;;;-0.50;99.90;;;;;;5041047;28;20107;-80
2024/01/20 04:58:49;;;;;;;1999.90;999.90;;;-0.50;99.90;;;;;;5040146;28;20457;-80
2024/01/20 05:01:14;;;;;;;1999.90;999.90;;;-0.50;99.90;;;;;;5040619;28;20348;-80
2024/01/20 05:03:40;;;;;;;1999.90;999.90;;;-0.50;99.90;;;;;;5023592;28;20323;-82
2024/01/20 05:06:06;;;;;;;1999.90;999.90;;;-0.60;99.90;;;;;;5023844;28;20489;-80
2024/01/20 05:08:31;;;;;;;1999.90;999.90;;;-0.60;99.90;;;;;;5039704;28;20073;-80
2024/01/20 05:10:57;;;;;;;1999.90;999.90;;;-0.60;99.90;;;;;;5039063;28;20117;-80
2024/01/20 05:13:23;;;;;;;1999.90;999.90;;;-0.50;99.90;;;;;;5023059;28;20034;-80
2024/01/20 05:15:48;;;;;;;1999.90;999.90;;;0.30;99.90;;;;;;5038753;28;20036;-80
2024/01/20 05:18:14;;;;;;;1999.90;999.90;;;-0.60;99.90;;;;;;5019560;28;20040;-81
2024/01/20 05:20:40;;;;;;;1999.90;999.90;;;-0.10;99.90;;;;;;5020147;28;20041;-81
2024/01/20 05:23:05;;;;;;;1999.90;999.90;;;-0.50;99.90;;;;;;5041106;28;20037;-80
2024/01/20 05:25:31;;;;;;;1999.90;999.90;;;-0.50;99.90;;;;;;5019451;28;20269;-80
2024/01/20 05:27:57;;;;;;;1999.90;999.90;;;-0.60;99.90;;;;;;5018516;28;20464;-80
2024/01/20 05:30:23;;;;;;;1999.90;999.90;;;-0.60;99.90;;;;;;5019954;28;20037;-80
2024/01/20 05:32:49;;;;;;;1999.90;999.90;;;-0.60;99.90;;;;;;5039525;28;20452;-81
2024/01/20 05:35:15;;;;;;;1999.90;999.90;;;-0.60;99.90;;;;;;5023500;28;20037;-80
2024/01/20 05:37:40;;;;;;;1999.90;999.90;;;-0.60;99.90;;;;;;5041682;28;20093;-80
2024/01/20 05:40:06;;;;;;;1999.90;999.90;;;-0.60;99.90;;;;;;5022538;28;20115;-80
2024/01/20 05:42:32;;;;;;;1999.90;999.90;;;-0.60;99.90;;;;;;5038833;28;20037;-80
2024/01/20 05:44:58;;;;;;;1999.90;999.90;;;-0.70;99.90;;;;;;5022689;28;20033;-80
2024/01/20 05:47:25;;;;;;;1999.90;999.90;;;-0.70;99.90;;;;;;5022999;28;20148;-80
2024/01/20 05:49:51;;;;;;;1999.90;999.90;;;-0.70;99.90;;;;;;5024167;28;20037;-80
2024/01/20 05:52:16;;;;;;;1999.90;999.90;;;-0.70;99.90;;;;;;5045480;28;20044;-80
2024/01/20 05:54:42;;;;;;;1999.90;999.90;;;-0.70;99.90;;;;;;5040230;28;20101;-80
2024/01/20 05:57:08;;;;;;;1999.90;999.90;;;-0.20;99.90;;;;;;5023115;28;20037;-80
2024/01/20 05:59:34;;;;;;;1999.90;999.90;;;-0.70;99.90;;;;;;5021383;28;20033;-80
2024/01/20 06:02:00;;;;;;;1999.90;999.90;;;-0.70;99.90;;;;;;5018620;28;20034;-80
2024/01/20 06:04:26;;;;;;;1999.90;999.90;;;-0.70;99.90;;;;;;5019498;28;20076;-80
2024/01/20 06:06:53;;;;;;;1999.90;999.90;;;-0.80;99.90;;;;;;5019246;28;20501;-80
2024/01/20 06:09:18;;;;;;;1999.90;999.90;;;-0.70;99.90;;;;;;5035724;28;20037;-80
2024/01/20 06:11:44;;;;;;;1999.90;999.90;;;-0.80;99.90;;;;;;5019250;28;20418;-81
2024/01/20 06:14:10;;;;;;;1999.90;999.90;;;-0.80;99.90;;;;;;5036078;28;20041;-81
2024/01/20 06:16:38;;;;;;;1999.90;999.90;;;-0.80;99.90;;;;;;5038272;28;20048;-81
2024/01/20 06:19:05;;;;;;;1999.90;999.90;;;-0.70;99.90;;;;;;5019809;28;20405;-81
2024/01/20 06:21:31;;;;;;;1999.90;999.90;;;0.60;99.90;;;;;;5034987;28;20049;-81
2024/01/20 06:23:56;;;;;;;1999.90;999.90;;;-0.80;99.90;;;;;;5023239;28;20037;-80
2024/01/20 06:26:22;;;;;;;1999.90;999.90;;;-0.80;99.90;;;;;;5023865;28;20568;-81
2024/01/20 06:28:47;;;;;;;1999.90;999.90;;;-0.80;99.90;;;;;;5040146;28;20108;-80
2024/01/20 06:31:27;;;;;;;1999.90;999.90;;;-0.80;99.90;;;;;;5023717;28;20038;-81
2024/01/20 06:33:53;;;;;;;1999.90;999.90;;;-0.70;99.90;;;;;;5022192;28;20046;-80
2024/01/20 06:36:25;;;;;;;1999.90;999.90;;;-0.80;99.90;;;;;;5039476;28;20037;-81
2024/01/20 06:38:51;;;;;;;1999.90;999.90;;;-0.80;99.90;;;;;;5024966;28;20064;-80
2024/01/20 06:41:17;;;;;;;1999.90;999.90;;;0.10;99.90;;;;;;5028160;28;20083;-80
2024/01/20 06:43:43;;;;;;;1999.90;999.90;;;-0.80;99.90;;;;;;5044573;28;20037;-81
2024/01/20 06:46:08;;;;;;;1999.90;999.90;;;0.70;99.90;;;;;;5043196;28;20528;-80
2024/01/20 06:48:34;;;;;;;1999.90;999.90;;;-0.80;99.90;;;;;;5042890;28;20063;-80
2024/01/20 06:51:01;;;;;;;1999.90;999.90;;;-0.80;99.90;;;;;;5025666;28;20097;-80
2024/01/20 06:53:30;;;;;;;1999.90;999.90;;;-0.80;99.90;;;;;;5024916;28;20034;-80
2024/01/20 06:55:56;;;;;;;1999.90;999.90;;;-0.80;99.90;;;;;;5024493;28;20045;-80
2024/01/20 06:58:23;;;;;;;1999.90;999.90;;;-0.80;99.90;;;;;;5043160;28;20029;-80
2024/01/20 07:00:49;;;;;;;1999.90;999.90;;;-0.80;99.90;;;;;;5020605;28;20041;-79
2024/01/20 07:03:15;;;;;;;1999.90;999.90;;;-0.80;99.90;;;;;;5024149;28;20045;-80
2024/01/20 07:05:41;;;;;;;1999.90;999.90;;;-0.80;99.90;;;;;;5040200;28;20079;-80
2024/01/20 07:08:07;;;;;;;1999.90;999.90;;;-0.80;99.90;;;;;;5023660;28;20561;-81
2024/01/20 07:10:33;;;;;;;1999.90;999.90;;;-0.80;99.90;;;;;;5041201;28;20075;-80
2024/01/20 07:12:58;;;;;;;1999.90;999.90;;;-0.80;99.90;;;;;;5024027;28;20414;-81
2024/01/20 07:15:24;;;;;;;1999.90;999.90;;;0.40;99.90;;;;;;5040386;28;20048;-80
2024/01/20 07:17:50;;;;;;;1999.90;999.90;;;-0.80;99.90;;;;;;5022963;28;20041;-81
2024/01/20 07:20:15;;;;;;;1999.90;999.90;;;0.30;99.90;;;;;;5024830;28;20030;-82
2024/01/20 07:22:41;;;;;;;1999.90;999.90;;;-0.80;99.90;;;;;;5027392;28;20076;-80
2024/01/20 07:25:08;;;;;;;1999.90;999.90;;;0.20;99.90;;;;;;5042950;28;20038;-81
2024/01/20 07:27:34;;;;;;;1999.90;999.90;;;-0.80;99.90;;;;;;5027257;28;20079;-80
2024/01/20 07:30:00;;;;;;;1999.90;999.90;;;-0.80;99.90;;;;;;5027279;28;20429;-81
2024/01/20 07:32:26;;;;;;;1999.90;999.90;;;-0.80;99.90;;;;;;5044058;28;20037;-80
2024/01/20 07:34:52;;;;;;;1999.90;999.90;;;-0.70;99.90;;;;;;5043547;28;20045;-80
2024/01/20 07:37:17;;;;;;;1999.90;999.90;;;-0.70;99.90;;;;;;5043803;28;20033;-81
2024/01/20 07:39:43;;;;;;;1999.90;999.90;;;0.30;99.90;;;;;;5027460;28;20033;-80
2024/01/20 07:42:09;;;;;;;1999.90;999.90;;;0.10;99.90;;;;;;5027808;28;20073;-81
2024/01/20 07:44:35;;;;;;;1999.90;999.90;;;0.60;99.90;;;;;;5046403;28;20032;-81
2024/01/20 07:47:01;;;;;;;1999.90;999.90;;;-1.80;99.90;;;;;;5027844;28;20069;-80
2024/01/20 07:49:27;;;;;;;1999.90;999.90;;;-0.50;99.90;;;;;;5027200;28;20042;-82
2024/01/20 07:51:53;;;;;;;1999.90;999.90;;;-0.40;99.90;;;;;;5043297;28;20428;-80
2024/01/20 07:54:18;;;;;;;1999.90;999.90;;;0.90;99.90;;;;;;5044163;28;20220;-81
2024/01/20 07:56:44;;;;;;;1999.90;999.90;;;1.20;99.90;;;;;;5043833;28;20494;-80
2024/01/20 07:59:13;;;;;;;1999.90;999.90;;;0.90;99.90;;;;;;5027947;28;20045;-81
2024/01/20 08:01:38;;;;;;;1999.90;999.90;;;1.00;99.90;;;;;;5026684;28;20103;-80
2024/01/20 08:04:05;;;;;;;1999.90;999.90;;;-0.20;99.90;;;;;;5026735;28;20045;-81
2024/01/20 08:06:31;;;;;;;1999.90;999.90;;;1.30;99.90;;;;;;5027799;28;20033;-82
2024/01/20 08:08:57;;;;;;;1999.90;999.90;;;0.00;99.90;;;;;;5050191;28;20421;-80
2024/01/20 08:11:23;;;;;;;1999.90;999.90;;;0.10;99.90;;;;;;5044005;28;20425;-81
2024/01/20 08:13:49;;;;;;;1999.90;999.90;;;0.10;99.90;;;;;;5047724;28;20049;-81
2024/01/20 08:16:14;;;;;;;1999.90;999.90;;;0.20;99.90;;;;;;5043078;28;20057;-81
2024/01/20 08:18:43;;;;;;;1999.90;999.90;;;0.80;99.90;;;;;;5044033;28;20048;-81
2024/01/20 08:21:09;;;;;;;1999.90;999.90;;;1.80;99.90;;;;;;5026792;28;20046;-80
2024/01/20 08:23:34;;;;;;;1999.90;999.90;;;0.10;99.90;;;;;;5028297;28;20413;-81
2024/01/20 08:26:00;;;;;;;1999.90;999.90;;;1.90;99.90;;;;;;5026862;28;20091;-80
2024/01/20 08:28:26;;;;;;;1999.90;999.90;;;0.30;99.90;;;;;;5042603;28;20048;-81
2024/01/20 08:30:52;;;;;;;1999.90;999.90;;;1.30;99.90;;;;;;5027246;28;20033;-81
2024/01/20 08:33:18;;;;;;;1999.90;999.90;;;0.30;99.90;;;;;;5043724;28;20120;-81
2024/01/20 08:35:46;;;;;;;1999.90;999.90;;;0.30;99.90;;;;;;5027483;28;20033;-81
2024/01/20 08:38:12;;;;;;;1999.90;999.90;;;0.30;99.90;;;;;;5043727;28;20041;-81
2024/01/20 08:40:38;;;;;;;1999.90;999.90;;;0.40;99.90;;;;;;5027468;28;20112;-81
2024/01/20 08:43:07;;;;;;;1999.90;999.90;;;0.40;99.90;;;;;;5044263;28;20033;-82
2024/01/20 08:45:33;;;;;;;1999.90;999.90;;;1.70;99.90;;;;;;5027209;28;20033;-81
2024/01/20 08:47:59;;;;;;;1999.90;999.90;;;0.50;99.90;;;;;;5026587;28;20104;-81
2024/01/20 08:50:24;;;;;;;1999.90;999.90;;;1.30;99.90;;;;;;5042176;28;20045;-80
2024/01/20 08:52:50;;;;;;;1999.90;999.90;;;0.60;99.90;;;;;;5042856;28;20037;-80
2024/01/20 08:55:15;;;;;;;1999.90;999.90;;;0.70;99.90;;;;;;5042554;28;20048;-81
2024/01/20 08:57:42;;;;;;;1999.90;999.90;;;0.70;99.90;;;;;;5026238;28;20038;-80
2024/01/20 09:00:11;;;;;;;1999.90;999.90;;;0.80;99.90;;;;;;5010477;28;20028;-81
2024/01/20 09:02:36;;;;;;;1999.90;999.90;;;0.80;99.90;;;;;;5042074;28;20498;-82
2024/01/20 09:05:02;;;;;;;1999.90;999.90;;;1.10;99.90;;;;;;5042772;28;20026;-80
2024/01/20 09:07:28;;;;;;;1999.90;999.90;;;0.90;99.90;;;;;;5026858;28;20477;-81
2024/01/20 09:09:56;;;;;;;1999.90;999.90;;;1.00;99.90;;;;;;5040777;28;20040;-80
2024/01/20 09:12:22;;;;;;;1999.90;999.90;;;1.30;99.90;;;;;;5028516;28;20049;-80
2024/01/20 09:14:48;;;;;;;1999.90;999.90;;;1.00;99.90;;;;;;5040635;28;20034;-81
2024/01/20 09:17:13;;;;;;;1999.90;999.90;;;1.10;99.90;;;;;;5038999;28;20040;-81
2024/01/20 09:19:39;;;;;;;1999.90;999.90;;;1.10;99.90;;;;;;5022698;28;20136;-82
2024/01/20 09:22:05;;;;;;;1999.90;999.90;;;1.20;99.90;;;;;;5039880;28;20037;-81
2024/01/20 09:24:30;;;;;;;1999.90;999.90;;;1.20;99.90;;;;;;5022788;28;20045;-82
2024/01/20 09:26:56;;;;;;;1999.90;999.90;;;2.60;99.90;;;;;;5023253;28;20675;-82
2024/01/20 09:29:21;;;;;;;1999.90;999.90;;;1.20;99.90;;;;;;5021856;28;20041;-81
2024/01/20 09:31:47;;;;;;;1999.90;999.90;;;1.30;99.90;;;;;;5023303;28;20029;-81
2024/01/20 09:34:12;;;;;;;1999.90;999.90;;;1.30;99.90;;;;;;5021653;28;20120;-81
2024/01/20 09:36:38;;;;;;;1999.90;999.90;;;1.50;99.90;;;;;;5021511;28;20029;-81
2024/01/20 09:39:04;;;;;;;1999.90;999.90;;;1.40;99.90;;;;;;5037973;28;20053;-81
2024/01/20 09:41:30;;;;;;;1999.90;999.90;;;1.40;99.90;;;;;;5020962;28;20037;-81
2024/01/20 09:43:56;;;;;;;1999.90;999.90;;;1.50;99.90;;;;;;5021092;28;20029;-81
2024/01/20 09:46:22;;;;;;;1999.90;999.90;;;1.50;99.90;;;;;;5024434;28;20120;-82
2024/01/20 09:48:54;;;;;;;1999.90;999.90;;;1.60;99.90;;;;;;5021483;28;20061;-81
2024/01/20 09:51:24;;;;;;;1999.90;999.90;;;1.60;99.90;;;;;;5021661;28;20041;-81
2024/01/20 09:53:55;;;;;;;1999.90;999.90;;;1.70;99.90;;;;;;5020780;28;20029;-81
2024/01/20 09:56:21;;;;;;;1999.90;999.90;;;1.70;99.90;;;;;;5034213;28;20038;-81
2024/01/20 09:58:49;;;;;;;1999.90;999.90;;;1.70;99.90;;;;;;5022058;28;20540;-81
2024/01/20 10:01:16;;;;;;;1999.90;999.90;;;1.80;99.90;;;;;;5021374;28;20034;-80
2024/01/20 10:03:42;;;;;;;1999.90;999.90;;;1.80;99.90;;;;;;5021922;28;20041;-81
2024/01/20 10:06:07;;;;;;;1999.90;999.90;;;1.90;99.90;;;;;;5037910;28;20041;-81
2024/01/20 10:08:33;;;;;;;1999.90;999.90;;;1.90;99.90;;;;;;5022217;28;20464;-81
2024/01/20 10:11:05;;;;;;;1999.90;999.90;;;1.90;99.90;;;;;;5021901;28;20590;-81
2024/01/20 10:13:31;;;;;;;1999.90;999.90;;;2.20;99.90;;;;;;5040337;28;20077;-81
2024/01/20 10:15:57;;;;;;;1999.90;999.90;;;2.00;99.90;;;;;;5025870;28;20034;-81
2024/01/20 10:18:23;;;;;;;1999.90;999.90;;;2.00;99.90;;;;;;5041447;28;20406;-81
2024/01/20 10:20:48;;;;;;;1999.90;999.90;;;2.10;99.90;;;;;;5040274;28;20040;-81
2024/01/20 10:23:14;;;;;;;1999.90;999.90;;;2.90;99.90;;;;;;5024558;28;20033;-81
2024/01/20 10:25:40;;;;;;;1999.90;999.90;;;2.10;99.90;;;;;;5039898;28;20065;-81
2024/01/20 10:28:09;;;;;;;1999.90;999.90;;;2.20;99.90;;;;;;5023734;28;20484;-81
2024/01/20 10:30:37;;;;;;;1999.90;999.90;;;2.20;99.90;;;;;;5040807;28;20038;-81
2024/01/20 10:33:04;;;;;;;1999.90;999.90;;;3.40;99.90;;;;;;5023667;28;20036;-82
2024/01/20 10:35:29;;;;;;;1999.90;999.90;;;2.30;99.90;;;;;;5035190;28;20042;-80
2024/01/20 10:38:00;;;;;;;1999.90;999.90;;;3.30;99.90;;;;;;5023119;28;20044;-80
2024/01/20 10:40:26;;;;;;;1999.90;999.90;;;2.40;99.90;;;;;;5023244;28;20033;-80
2024/01/20 10:42:59;;;;;;;1999.90;999.90;;;2.40;99.90;;;;;;5039524;28;20041;-80
2024/01/20 10:45:27;;;;;;;1999.90;999.90;;;3.70;99.90;;;;;;5022802;28;20071;-81
2024/01/20 10:48:07;;;;;;;1999.90;999.90;;;2.50;99.90;;;;;;5039007;28;20037;-81
2024/01/20 10:50:35;;;;;;;1999.90;999.90;;;2.60;99.90;;;;;;5019110;28;20394;-81
2024/01/20 10:53:02;;;;;;;1999.90;999.90;;;3.80;99.90;;;;;;5039277;28;20647;-80
2024/01/20 10:55:29;;;;;;;1999.90;999.90;;;2.60;99.90;;;;;;5022330;28;20048;-81
2024/01/20 10:57:57;;;;;;;1999.90;999.90;;;2.60;99.90;;;;;;5022431;28;20038;-81
2024/01/20 11:00:23;;;;;;;1999.90;999.90;;;2.60;99.90;;;;;;5026404;28;20048;-81
2024/01/20 11:02:49;;;;;;;1999.90;999.90;;;2.70;99.90;;;;;;5022470;28;20160;-80
2024/01/20 11:05:23;;;;;;;1999.90;999.90;;;3.80;99.90;;;;;;5024594;28;20103;-81
2024/01/20 11:07:58;;;;;;;1999.90;999.90;;;2.80;99.90;;;;;;5024169;28;20033;-80
2024/01/20 11:10:24;;;;;;;1999.90;999.90;;;2.70;99.90;;;;;;5023419;28;20080;-82
2024/01/20 11:13:05;;;;;;;1999.90;999.90;;;3.50;99.90;;;;;;5024523;28;20030;-83
2024/01/20 11:15:32;;;;;;;1999.90;999.90;;;2.80;99.90;;;;;;5024062;28;20660;-82
2024/01/20 11:17:59;;;;;;;1999.90;999.90;;;3.80;99.90;;;;;;5024206;28;20033;-82
2024/01/20 11:20:25;;;;;;;1999.90;999.90;;;3.20;99.90;;;;;;5023562;28;20040;-83
2024/01/20 11:22:51;;;;;;;1999.90;999.90;;;3.90;99.90;;;;;;5023179;28;20120;-83
2024/01/20 11:25:18;;;;;;;1999.90;999.90;;;2.70;99.90;;;;;;5040236;28;20053;-82
2024/01/20 11:27:48;;;;;;;1999.90;999.90;;;2.70;99.90;;;;;;5023100;28;20041;-81
2024/01/20 11:30:23;;;;;;;1999.90;999.90;;;2.70;99.90;;;;;;5039598;28;20092;-82
2024/01/20 11:32:49;;;;;;;1999.90;999.90;;;2.60;99.90;;;;;;5019063;28;20038;-82
2024/01/20 11:35:15;;;;;;;1999.90;999.90;;;2.70;99.90;;;;;;5022351;28;20041;-82
2024/01/20 11:37:42;;;;;;;1999.90;999.90;;;2.60;99.90;;;;;;5023161;28;20574;-81
2024/01/20 11:40:09;;;;;;;1999.90;999.90;;;2.60;99.90;;;;;;5022454;28;20118;-81
2024/01/20 11:42:35;;;;;;;1999.90;999.90;;;2.60;99.90;;;;;;5039366;28;20045;-82
2024/01/20 11:45:03;;;;;;;1999.90;999.90;;;2.60;99.90;;;;;;5044096;28;20056;-82
2024/01/20 11:47:30;;;;;;;1999.90;999.90;;;2.60;99.90;;;;;;5039094;28;20041;-81
2024/01/20 11:49:57;;;;;;;1999.90;999.90;;;3.40;99.90;;;;;;5030881;28;20038;-82
2024/01/20 11:52:24;;;;;;;1999.90;999.90;;;3.90;99.90;;;;;;5039059;28;20033;-82
2024/01/20 11:54:49;;;;;;;1999.90;999.90;;;3.60;99.90;;;;;;5039107;28;20069;-82
2024/01/20 11:57:23;;;;;;;1999.90;999.90;;;3.90;99.90;;;;;;5020300;28;20037;-82
2024/01/20 11:59:49;;;;;;;1999.90;999.90;;;3.90;99.90;;;;;;5023350;28;20037;-82
2024/01/20 12:02:16;;;;;;;1999.90;999.90;;;3.10;99.90;;;;;;5022752;28;20045;-83